Time;durP1;ratioP1;P1;durP2;ratioP2;P2;SDS_P1;SDS_P2;PMS_P1;PMS_P2;Temp;Humidity;BMP_temperature;BMP_pressure;BME280_temperature;BME280_humidity;BME280_pressure;Samples;Min_cycle;Max_cycle;Signal;HPM_P1;HPM_P2
2023/08/14 00:00:12;;;;;;;4.82;3.55;;;;;;;19.32;76.21;65006.72;5034422;28;20212;-57
2023/08/14 00:02:38;;;;;;;3.60;3.20;;;;;;;19.35;75.82;65012.06;5052255;28;20278;-53
2023/08/14 00:05:04;;;;;;;3.70;3.08;;;;;;;19.29;77.49;65008.53;5034487;28;20213;-54
2023/08/14 00:07:30;;;;;;;4.75;3.13;;;;;;;19.22;76.84;64998.25;5034424;28;20313;-52
2023/08/14 00:09:55;;;;;;;4.30;3.67;;;;;;;19.38;76.24;65018.50;5052241;28;20221;-55
2023/08/14 00:12:22;;;;;;;3.83;2.97;;;;;;;19.39;76.41;65016.50;5052134;28;20300;-54
2023/08/14 00:14:47;;;;;;;4.80;3.20;;;;;;;19.31;76.60;65010.72;5034384;28;20209;-53
2023/08/14 00:17:13;;;;;;;4.55;3.33;;;;;;;19.18;77.11;64993.84;5034173;28;20206;-56
2023/08/14 00:19:40;;;;;;;5.20;3.45;;;;;;;18.94;78.99;64967.34;5052599;28;20223;-53
2023/08/14 00:22:05;;;;;;;3.53;3.22;;;;;;;18.94;80.19;64967.34;5034156;28;20297;-53
2023/08/14 00:24:32;;;;;;;4.03;3.63;;;;;;;18.83;81.09;64957.75;5033717;28;20194;-56
2023/08/14 00:26:58;;;;;;;3.95;3.30;;;;;;;18.75;82.06;64946.38;5052137;28;20217;-57
2023/08/14 00:29:25;;;;;;;5.32;3.60;;;;;;;18.79;80.90;64950.78;5052458;28;20702;-53
2023/08/14 00:31:50;;;;;;;3.70;3.40;;;;;;;18.92;78.98;64968.25;5051967;28;20202;-54
2023/08/14 00:34:16;;;;;;;4.00;3.20;;;;;;;18.94;77.19;64969.91;5052294;28;20592;-53
2023/08/14 00:36:41;;;;;;;4.40;3.33;;;;;;;19.05;76.74;64980.03;5034083;28;20205;-52
2023/08/14 00:39:07;;;;;;;4.75;3.40;;;;;;;19.10;76.37;64982.44;5051830;28;20582;-52
2023/08/14 00:41:32;;;;;;;4.72;3.33;;;;;;;19.09;76.24;64983.91;5051730;28;20251;-53
2023/08/14 00:43:58;;;;;;;4.97;3.42;;;;;;;19.05;75.76;64977.47;5051733;28;20589;-53
2023/08/14 00:46:24;;;;;;;4.10;3.67;;;;;;;19.19;73.97;64992.38;5051691;28;20684;-54
2023/08/14 00:48:50;;;;;;;3.60;3.05;;;;;;;19.26;72.92;65000.66;5052129;28;20221;-54
2023/08/14 00:51:16;;;;;;;3.72;3.40;;;;;;;19.22;73.72;65000.81;5051991;28;20577;-54
2023/08/14 00:53:42;;;;;;;4.43;3.38;;;;;;;19.15;74.10;64993.06;5051696;28;20710;-58
2023/08/14 00:56:07;;;;;;;4.03;3.10;;;;;;;19.31;72.02;65008.19;5033608;28;20232;-56
2023/08/14 00:58:34;;;;;;;4.35;3.22;;;;;;;19.28;72.26;65002.31;5051966;28;20210;-57
2023/08/14 01:01:00;;;;;;;3.33;3.03;;;;;;;19.31;72.66;65007.63;5033585;28;20201;-57
2023/08/14 01:03:26;;;;;;;3.58;3.28;;;;;;;19.42;71.29;65020.34;5051459;28;20232;-58
2023/08/14 01:05:51;;;;;;;7.15;3.17;;;;;;;19.57;71.37;65036.38;5051316;28;20201;-54
2023/08/14 01:08:17;;;;;;;3.42;3.13;;;;;;;19.53;68.99;65032.50;5051427;28;20216;-54
2023/08/14 01:10:48;;;;;;;5.75;3.38;;;;;;;19.43;70.70;65021.47;5051778;28;20205;-53
2023/08/14 01:13:47;;;;;;;5.72;2.78;;;;;;;19.44;69.41;65025.13;5051541;28;20248;-53
2023/08/14 01:16:20;;;;;;;4.00;3.17;;;;;;;19.43;68.67;65024.03;5048396;28;20386;-54
2023/08/14 01:18:46;;;;;;;4.57;2.80;;;;;;;19.38;70.97;65018.50;5051523;28;20205;-56
2023/08/14 01:21:15;;;;;;;3.63;3.28;;;;;;;19.45;68.35;65023.69;5051370;28;20266;-54
2023/08/14 01:23:55;;;;;;;4.05;3.20;;;;;;;19.37;68.88;65012.28;5051252;28;20206;-54
2023/08/14 01:26:22;;;;;;;3.28;2.70;;;;;;;19.36;68.46;65016.28;5051327;28;20216;-55
2023/08/14 01:28:49;;;;;;;4.40;3.03;;;;;;;19.32;68.67;65011.28;5051569;28;20201;-55
2023/08/14 01:31:15;;;;;;;4.13;3.00;;;;;;;19.28;68.82;65005.44;5051505;28;20271;-55
2023/08/14 01:33:40;;;;;;;2.92;2.60;;;;;;;19.25;69.55;65001.56;5051197;28;20625;-62
2023/08/14 01:36:20;;;;;;;3.35;3.05;;;;;;;19.15;69.59;64990.50;5049937;28;20704;-54
2023/08/14 01:38:45;;;;;;;4.93;3.08;;;;;;;19.15;69.46;64993.06;5051060;28;20293;-53
2023/08/14 01:41:27;;;;;;;3.05;2.85;;;;;;;19.19;68.96;64992.94;5051059;28;20633;-54
2023/08/14 01:43:57;;;;;;;3.58;3.00;;;;;;;19.16;68.53;64994.19;5033042;28;20205;-54
2023/08/14 01:46:24;;;;;;;4.95;2.90;;;;;;;19.16;68.65;64986.53;5050996;28;20632;-55
2023/08/14 01:48:52;;;;;;;4.65;2.70;;;;;;;19.27;67.60;65001.75;5051205;28;20213;-54
2023/08/14 01:51:20;;;;;;;2.78;2.58;;;;;;;19.33;66.98;65012.41;5051225;28;20225;-55
2023/08/14 01:53:46;;;;;;;3.35;2.97;;;;;;;19.32;66.73;65006.72;5032932;28;20213;-57
2023/08/14 01:56:12;;;;;;;3.85;2.85;;;;;;;19.22;67.27;65001.38;5050671;28;20217;-52
2023/08/14 01:58:37;;;;;;;3.78;2.60;;;;;;;19.22;67.23;64998.81;5050994;28;20213;-54
2023/08/14 02:01:03;;;;;;;3.50;2.95;;;;;;;19.24;67.37;65000.47;5050952;28;20706;-54
2023/08/14 02:03:30;;;;;;;5.38;2.88;;;;;;;19.12;68.02;64989.78;5050639;28;20201;-56
2023/08/14 02:05:56;;;;;;;2.90;2.70;;;;;;;19.05;68.34;64980.03;5032775;28;20197;-54
2023/08/14 02:08:21;;;;;;;6.30;2.75;;;;;;;18.95;68.64;64969.00;5050467;28;20624;-54
2023/08/14 02:10:47;;;;;;;3.03;2.70;;;;;;;18.95;68.92;64971.00;5050642;28;20236;-55
2023/08/14 02:13:12;;;;;;;3.25;2.67;;;;;;;18.74;69.71;64948.41;5050514;28;20213;-58
2023/08/14 02:15:39;;;;;;;3.35;3.05;;;;;;;18.75;70.57;64943.81;5050523;28;20664;-55
2023/08/14 02:18:04;;;;;;;4.05;2.70;;;;;;;18.59;70.60;64926.16;5050230;28;20210;-55
2023/08/14 02:20:30;;;;;;;3.95;2.75;;;;;;;18.62;70.91;64934.59;5050727;28;20200;-53
2023/08/14 02:22:55;;;;;;;3.58;2.78;;;;;;;18.50;71.52;64918.81;5050111;28;20216;-54
2023/08/14 02:25:20;;;;;;;3.13;2.85;;;;;;;18.52;72.07;64921.00;5050262;28;20302;-55
2023/08/14 02:27:46;;;;;;;3.10;2.80;;;;;;;18.51;72.26;64919.91;5050264;28;20580;-55
2023/08/14 02:30:11;;;;;;;2.90;2.60;;;;;;;18.35;72.57;64902.78;5050723;28;20335;-53
2023/08/14 02:32:37;;;;;;;3.25;2.70;;;;;;;18.36;73.09;64906.44;5049977;28;20212;-54
2023/08/14 02:35:03;;;;;;;3.45;2.83;;;;;;;18.23;73.84;64892.66;5050604;28;20212;-53
2023/08/14 02:37:28;;;;;;;3.55;2.72;;;;;;;18.20;75.32;64884.25;5050290;28;20698;-53
2023/08/14 02:39:53;;;;;;;3.35;2.67;;;;;;;18.06;74.59;64870.81;5050503;28;20699;-54
2023/08/14 02:42:20;;;;;;;3.63;2.60;;;;;;;18.10;75.36;64875.75;5049936;28;20748;-54
2023/08/14 02:44:46;;;;;;;2.60;2.40;;;;;;;17.99;76.18;64863.66;5050284;28;20774;-57
2023/08/14 02:47:11;;;;;;;3.13;2.83;;;;;;;17.96;76.91;64859.78;5052239;28;20206;-57
2023/08/14 02:49:37;;;;;;;3.67;2.72;;;;;;;18.03;77.40;64870.06;5056658;28;20229;-53
2023/08/14 02:52:02;;;;;;;4.22;3.08;;;;;;;17.98;77.98;64865.09;5056418;28;20232;-53
2023/08/14 02:54:28;;;;;;;4.07;2.85;;;;;;;17.95;76.76;64861.22;5056239;28;20307;-53
2023/08/14 02:56:54;;;;;;;3.10;2.53;;;;;;;17.91;77.95;64854.81;5056317;28;20752;-53
2023/08/14 02:59:19;;;;;;;4.65;2.42;;;;;;;17.91;77.24;64854.81;5056983;28;20197;-56
2023/08/14 03:01:45;;;;;;;3.63;2.67;;;;;;;17.65;76.30;64828.72;5056836;28;20675;-55
2023/08/14 03:04:13;;;;;;;4.15;2.70;;;;;;;17.85;76.91;64847.66;5038443;28;20187;-54
2023/08/14 03:06:39;;;;;;;3.08;2.65;;;;;;;17.91;76.57;64854.81;5056541;28;20350;-54
2023/08/14 03:09:05;;;;;;;4.65;2.70;;;;;;;17.88;76.88;64851.50;5056745;28;20717;-54
2023/08/14 03:11:30;;;;;;;3.80;2.30;;;;;;;17.95;76.16;64861.78;5056174;28;20691;-53
2023/08/14 03:13:55;;;;;;;4.55;2.75;;;;;;;17.89;75.46;64852.06;5056252;28;20221;-55
2023/08/14 03:16:21;;;;;;;3.03;2.63;;;;;;;18.01;75.73;64868.41;5056331;28;20276;-53
2023/08/14 03:18:46;;;;;;;2.67;2.25;;;;;;;18.05;76.20;64872.81;5056441;28;20304;-54
2023/08/14 03:21:12;;;;;;;3.80;2.92;;;;;;;17.99;75.25;64863.66;5056236;28;20213;-53
2023/08/14 03:23:37;;;;;;;4.43;3.03;;;;;;;18.03;75.48;64870.06;5056144;28;20197;-53
2023/08/14 03:26:04;;;;;;;3.22;2.92;;;;;;;18.10;75.03;64875.22;5056111;28;20205;-55
2023/08/14 03:28:30;;;;;;;3.00;2.70;;;;;;;18.01;76.03;64863.31;5056385;28;20197;-53
2023/08/14 03:30:55;;;;;;;4.03;2.80;;;;;;;18.19;75.46;64885.16;5038366;28;20200;-51
2023/08/14 03:33:21;;;;;;;3.33;2.88;;;;;;;18.27;74.61;64894.53;5056033;28;20217;-51
2023/08/14 03:35:47;;;;;;;5.32;3.15;;;;;;;18.24;74.46;64890.66;5055883;28;20185;-56
2023/08/14 03:38:12;;;;;;;4.28;2.70;;;;;;;18.23;74.58;64892.09;5055957;28;20706;-51
2023/08/14 03:40:39;;;;;;;6.25;2.70;;;;;;;18.26;77.14;64895.97;5056129;28;20197;-51
2023/08/14 03:43:05;;;;;;;4.78;2.70;;;;;;;18.37;76.41;64905.56;5055726;28;20296;-50
2023/08/14 03:45:30;;;;;;;5.57;2.90;;;;;;;18.31;75.86;64898.94;5056023;28;20327;-51
2023/08/14 03:47:56;;;;;;;3.95;2.72;;;;;;;18.31;76.24;64898.38;5056125;28;20570;-51
2023/08/14 03:50:22;;;;;;;4.43;2.53;;;;;;;18.29;76.63;64901.84;5055895;28;20558;-51
2023/08/14 03:52:50;;;;;;;3.95;3.20;;;;;;;18.31;77.54;64898.38;5055619;28;20566;-51
2023/08/14 03:55:15;;;;;;;4.95;2.97;;;;;;;18.23;77.06;64890.13;5055640;28;20325;-51
2023/08/14 03:57:41;;;;;;;3.63;2.78;;;;;;;18.28;74.76;64895.63;5037917;28;20374;-51
2023/08/14 04:00:08;;;;;;;3.05;2.72;;;;;;;18.37;74.41;64903.00;5051887;28;20288;-52
2023/08/14 04:02:33;;;;;;;5.40;3.00;;;;;;;18.46;75.84;64914.41;5052195;28;20284;-50
2023/08/14 04:04:59;;;;;;;5.95;3.25;;;;;;;18.63;75.04;64935.69;5052904;28;20716;-50
2023/08/14 04:07:24;;;;;;;4.43;3.05;;;;;;;18.52;73.82;64921.00;5052144;28;20205;-50
2023/08/14 04:09:49;;;;;;;3.65;2.92;;;;;;;18.32;75.67;64899.50;5052804;28;20217;-51
2023/08/14 04:12:15;;;;;;;3.72;2.60;;;;;;;18.29;77.39;64899.28;5052375;28;20201;-51
2023/08/14 04:14:40;;;;;;;5.72;2.90;;;;;;;18.44;75.11;64912.75;5052132;28;20691;-51
2023/08/14 04:17:06;;;;;;;5.18;3.15;;;;;;;18.50;75.08;64921.38;5052586;28;20213;-51
2023/08/14 04:19:31;;;;;;;2.95;2.75;;;;;;;18.56;75.82;64925.44;5052594;28;20244;-52
2023/08/14 04:21:57;;;;;;;4.60;2.90;;;;;;;18.42;76.63;64913.59;5034314;28;20213;-51
2023/08/14 04:24:22;;;;;;;3.67;2.92;;;;;;;18.36;77.23;64903.91;5052031;28;20266;-53
2023/08/14 04:26:55;;;;;;;3.60;2.88;;;;;;;18.24;78.54;64891.19;5052357;28;20217;-53
2023/08/14 04:29:20;;;;;;;6.95;3.05;;;;;;;18.06;79.63;64871.34;5052027;28;20325;-51
2023/08/14 04:31:46;;;;;;;3.88;3.25;;;;;;;18.12;79.48;64877.97;5051989;28;20350;-51
2023/08/14 04:34:11;;;;;;;3.20;2.90;;;;;;;18.13;80.99;64881.63;5052271;28;20257;-50
2023/08/14 04:36:37;;;;;;;6.70;3.35;;;;;;;18.24;80.38;64888.13;5051706;28;20209;-52
2023/08/14 04:39:04;;;;;;;3.67;3.13;;;;;;;18.41;80.55;64907.41;5052445;28;20201;-52
2023/08/14 04:41:30;;;;;;;4.45;2.80;;;;;;;18.60;79.69;64930.41;5051852;28;20262;-52
2023/08/14 04:43:56;;;;;;;3.78;2.67;;;;;;;18.65;74.98;64940.44;5051886;28;20213;-57
2023/08/14 04:46:33;;;;;;;6.15;2.88;;;;;;;18.73;76.45;64942.19;5052106;28;20201;-53
2023/08/14 04:48:59;;;;;;;4.78;2.92;;;;;;;18.68;77.55;64936.13;5052233;28;20259;-51
2023/08/14 04:51:25;;;;;;;5.15;3.38;;;;;;;18.85;76.20;64957.97;5051671;28;20213;-56
2023/08/14 04:53:51;;;;;;;8.45;3.40;;;;;;;18.86;75.34;64955.97;5033796;28;20217;-52
2023/08/14 04:56:17;;;;;;;3.10;2.50;;;;;;;18.81;76.71;64953.00;5051635;28;20213;-53
2023/08/14 04:58:44;;;;;;;6.35;3.90;;;;;;;18.55;78.21;64924.31;5034050;28;20259;-52
2023/08/14 05:01:09;;;;;;;5.75;4.07;;;;;;;18.33;80.21;64903.69;5051447;28;20205;-52
2023/08/14 05:03:35;;;;;;;6.50;4.20;;;;;;;18.29;81.03;64899.28;5051881;28;20208;-50
2023/08/14 05:06:00;;;;;;;7.55;5.25;;;;;;;18.16;82.58;64882.38;5051638;28;20614;-50
2023/08/14 05:08:25;;;;;;;8.82;4.90;;;;;;;18.22;82.88;64888.47;5051982;28;20201;-50
2023/08/14 05:10:52;;;;;;;7.07;4.88;;;;;;;18.18;84.23;64884.06;5051437;28;20248;-50
2023/08/14 05:13:18;;;;;;;6.45;4.40;;;;;;;18.17;84.46;64880.94;5051579;28;20221;-51
2023/08/14 05:15:49;;;;;;;8.35;4.60;;;;;;;18.16;84.95;64881.84;5051430;28;20193;-50
2023/08/14 05:18:16;;;;;;;8.32;5.60;;;;;;;18.18;85.03;64887.13;5051908;28;20229;-50
2023/08/14 05:20:46;;;;;;;8.32;5.18;;;;;;;18.39;84.05;64904.66;5051389;28;20209;-51
2023/08/14 05:23:12;;;;;;;9.32;4.75;;;;;;;18.34;83.26;64902.22;5051329;28;20231;-50
2023/08/14 05:25:37;;;;;;;6.65;5.07;;;;;;;18.48;83.10;64916.59;5033456;28;20323;-51
2023/08/14 05:28:04;;;;;;;8.77;5.35;;;;;;;18.56;82.52;64922.88;5051681;28;20237;-51
2023/08/14 05:30:30;;;;;;;6.22;4.82;;;;;;;18.73;81.64;64941.63;5051189;28;20711;-51
2023/08/14 05:32:55;;;;;;;6.85;4.93;;;;;;;18.97;80.37;64973.75;5051639;28;20305;-50
2023/08/14 05:35:24;;;;;;;6.30;4.85;;;;;;;19.24;80.30;65000.47;5033338;28;20683;-59
2023/08/14 05:37:58;;;;;;;7.72;5.15;;;;;;;19.53;77.84;65034.50;5051104;28;20217;-52
2023/08/14 05:40:27;;;;;;;5.32;4.43;;;;;;;19.56;76.78;65035.25;5051121;28;20197;-51
2023/08/14 05:43:08;;;;;;;9.23;5.03;;;;;;;19.27;78.92;65003.75;5051010;28;20705;-50
2023/08/14 05:45:36;;;;;;;7.03;4.85;;;;;;;19.34;79.71;65014.06;5051645;28;20200;-51
2023/08/14 05:48:04;;;;;;;7.15;4.00;;;;;;;19.55;79.80;65032.16;5051547;28;20714;-50
2023/08/14 05:50:30;;;;;;;7.28;4.43;;;;;;;19.66;77.21;65046.84;5050923;28;20186;-52
2023/08/14 05:52:59;;;;;;;9.48;4.28;;;;;;;19.79;74.50;65063.78;5050869;28;20240;-51
2023/08/14 05:55:25;;;;;;;7.88;4.60;;;;;;;19.77;74.65;65056.44;5050848;28;20710;-51
2023/08/14 05:57:51;;;;;;;9.90;4.32;;;;;;;19.98;73.35;65079.63;5050857;28;20201;-50
2023/08/14 06:00:19;;;;;;;6.60;3.83;;;;;;;19.93;74.38;65073.56;5051013;28;20231;-51
2023/08/14 06:02:45;;;;;;;7.05;4.22;;;;;;;19.95;73.81;65078.34;5050682;28;20201;-51
2023/08/14 06:05:11;;;;;;;5.75;4.03;;;;;;;20.16;72.59;65098.97;5050585;28;20201;-56
2023/08/14 06:07:38;;;;;;;4.90;4.20;;;;;;;20.17;72.88;65099.50;5050992;28;20201;-51
2023/08/14 06:10:06;;;;;;;8.68;4.05;;;;;;;20.35;71.97;65119.41;5016149;28;20216;-50
2023/08/14 06:12:32;;;;;;;5.95;4.28;;;;;;;20.48;71.42;65136.34;5050403;28;20209;-50
2023/08/14 06:14:58;;;;;;;5.70;4.05;;;;;;;20.46;72.16;65134.16;5051033;28;20220;-55
2023/08/14 06:17:25;;;;;;;5.75;3.88;;;;;;;20.46;72.65;65132.13;5050929;28;20624;-51
2023/08/14 06:19:50;;;;;;;6.75;3.90;;;;;;;20.48;71.81;65133.81;5050819;28;20212;-58
2023/08/14 06:22:17;;;;;;;8.50;4.47;;;;;;;20.48;72.18;65134.34;5049892;28;20206;-51
2023/08/14 06:24:43;;;;;;;7.13;3.78;;;;;;;20.53;71.68;65139.88;5050442;28;20216;-51
2023/08/14 06:27:09;;;;;;;7.22;4.05;;;;;;;20.63;70.78;65153.47;5050390;28;20221;-51
2023/08/14 06:29:34;;;;;;;7.40;4.90;;;;;;;20.77;70.41;65163.28;5032409;28;20209;-51
2023/08/14 06:32:00;;;;;;;6.28;4.15;;;;;;;20.90;69.79;65180.78;5050101;28;20280;-51
2023/08/14 06:34:27;;;;;;;8.48;5.25;;;;;;;21.02;69.31;65193.50;5050470;28;20224;-54
2023/08/14 06:36:53;;;;;;;7.20;4.30;;;;;;;21.15;69.62;65207.88;5050342;28;20688;-54
2023/08/14 06:39:19;;;;;;;7.13;4.32;;;;;;;21.29;68.04;65225.91;5032187;28;20217;-51
2023/08/14 06:41:45;;;;;;;11.07;4.53;;;;;;;21.27;67.02;65220.59;5050140;28;20267;-51
2023/08/14 06:44:11;;;;;;;10.18;4.85;;;;;;;21.34;66.36;65231.44;5049932;28;20680;-51
2023/08/14 06:46:37;;;;;;;6.75;4.22;;;;;;;21.37;65.71;65234.22;5050088;28;20284;-53
2023/08/14 06:49:03;;;;;;;3.53;3.10;;;;;;;21.49;64.16;65245.47;5050349;28;20212;-52
2023/08/14 06:51:29;;;;;;;4.75;4.07;;;;;;;21.64;64.01;65264.63;5031959;28;20209;-53
2023/08/14 06:53:54;;;;;;;4.63;3.22;;;;;;;21.64;62.36;65264.63;5050272;28;20213;-54
2023/08/14 06:56:19;;;;;;;3.70;3.30;;;;;;;21.69;61.42;65272.19;5050004;28;20240;-54
2023/08/14 06:58:45;;;;;;;6.72;3.72;;;;;;;21.79;61.03;65278.13;5050303;28;20259;-54
2023/08/14 07:01:11;;;;;;;5.00;3.42;;;;;;;21.91;61.48;65293.97;5050136;28;20205;-52
2023/08/14 07:03:38;;;;;;;4.30;3.55;;;;;;;22.02;61.41;65303.03;5050131;28;20198;-53
2023/08/14 07:06:04;;;;;;;6.20;3.65;;;;;;;22.19;61.54;65322.41;5031808;28;20309;-59
2023/08/14 07:08:30;;;;;;;3.95;3.30;;;;;;;22.46;59.34;65351.75;5049811;28;20522;-52
2023/08/14 07:10:56;;;;;;;5.78;3.92;;;;;;;22.45;59.49;65355.75;5050049;28;20193;-53
2023/08/14 07:13:22;;;;;;;3.83;2.92;;;;;;;22.38;58.51;65346.00;5049894;28;20227;-51
2023/08/14 07:15:48;;;;;;;3.95;3.10;;;;;;;22.65;56.99;65372.78;5049546;28;20197;-53
2023/08/14 07:18:18;;;;;;;5.30;3.50;;;;;;;22.94;57.07;65404.91;5049762;28;20209;-52
2023/08/14 07:20:47;;;;;;;3.95;2.65;;;;;;;23.17;55.22;65430.38;5049667;28;20159;-57
2023/08/14 07:23:18;;;;;;;3.33;2.97;;;;;;;23.16;54.52;65428.72;5049539;28;20372;-55
2023/08/14 07:25:44;;;;;;;2.90;2.47;;;;;;;23.34;52.53;65449.25;5049408;28;20201;-53
2023/08/14 07:28:10;;;;;;;5.03;3.97;;;;;;;23.50;52.37;65465.84;5049863;28;20339;-51
2023/08/14 07:30:37;;;;;;;5.18;3.17;;;;;;;23.61;53.75;65478.03;5049907;28;20676;-53
2023/08/14 07:33:04;;;;;;;7.78;3.33;;;;;;;23.65;52.38;65482.47;5049353;28;20226;-52
2023/08/14 07:35:37;;;;;;;4.82;3.20;;;;;;;23.70;52.42;65488.00;5052085;28;20204;-52
2023/08/14 07:38:03;;;;;;;6.82;3.40;;;;;;;23.52;53.27;65468.06;5052868;28;20221;-52
2023/08/14 07:40:29;;;;;;;5.43;3.38;;;;;;;23.56;52.40;65473.06;5053308;28;20271;-53
2023/08/14 07:42:55;;;;;;;4.40;2.67;;;;;;;23.89;50.82;65509.63;5053343;28;20263;-54
2023/08/14 07:45:20;;;;;;;4.22;2.80;;;;;;;24.17;50.25;65540.69;5052828;28;20273;-53
2023/08/14 07:47:46;;;;;;;6.07;3.38;;;;;;;24.34;50.45;65558.44;5052663;28;20694;-53
2023/08/14 07:50:12;;;;;;;6.82;3.33;;;;;;;24.32;50.59;65556.75;5052776;28;20212;-52
2023/08/14 07:52:39;;;;;;;4.28;2.92;;;;;;;24.13;50.33;65533.69;5052734;28;20218;-53
2023/08/14 07:55:05;;;;;;;7.95;2.95;;;;;;;24.31;49.89;65555.66;5034655;28;20293;-52
2023/08/14 07:57:30;;;;;;;3.63;2.60;;;;;;;24.32;51.28;65554.19;5052538;28;20278;-52
2023/08/14 07:59:56;;;;;;;4.65;3.17;;;;;;;24.12;51.73;65535.16;5052795;28;20205;-56
2023/08/14 08:02:22;;;;;;;5.68;2.90;;;;;;;24.29;49.08;65553.44;5052519;28;20201;-54
2023/08/14 08:04:48;;;;;;;6.95;2.90;;;;;;;24.35;51.15;65560.09;5052762;28;20228;-55
2023/08/14 08:07:14;;;;;;;5.53;3.05;;;;;;;24.32;50.68;65556.22;5052400;28;20667;-54
2023/08/14 08:09:39;;;;;;;5.63;3.20;;;;;;;24.23;51.78;65549.38;5052980;28;20197;-55
2023/08/14 08:12:06;;;;;;;6.25;3.30;;;;;;;24.17;52.46;65538.13;5052369;28;20275;-53
2023/08/14 08:14:33;;;;;;;4.85;3.25;;;;;;;24.31;50.88;65555.09;5034737;28;20245;-54
2023/08/14 08:16:59;;;;;;;10.60;8.02;;;;;;;24.40;50.98;65563.06;5052463;28;20301;-59
2023/08/14 08:19:24;;;;;;;16.45;12.43;;;;;;;24.43;51.32;65563.25;5052220;28;20205;-57
2023/08/14 08:21:50;;;;;;;5.82;4.10;;;;;;;24.53;51.44;65580.06;5073384;22;20213;-55
2023/08/14 08:24:15;;;;;;;6.70;5.50;;;;;;;24.53;51.18;65582.63;5052557;28;20645;-55
2023/08/14 08:26:41;;;;;;;5.05;3.33;;;;;;;24.92;49.46;65625.94;5034303;28;20216;-54
2023/08/14 08:29:06;;;;;;;4.85;3.10;;;;;;;25.16;50.49;65651.44;5052274;28;20201;-55
2023/08/14 08:31:32;;;;;;;15.25;4.75;;;;;;;25.26;48.61;65659.97;5052150;28;20201;-54
2023/08/14 08:33:57;;;;;;;8.25;5.90;;;;;;;24.99;47.26;65631.09;5052102;28;20735;-57
2023/08/14 08:36:23;;;;;;;4.95;3.33;;;;;;;25.40;48.98;65675.50;5033970;28;20564;-53
2023/08/14 08:38:50;;;;;;;3.63;3.15;;;;;;;25.72;48.91;65714.19;5052048;28;20251;-56
2023/08/14 08:41:31;;;;;;;5.90;3.20;;;;;;;25.88;47.56;65728.81;5033874;28;20301;-54
2023/08/14 08:44:07;;;;;;;5.68;3.33;;;;;;;25.95;46.85;65734.00;5052145;28;20235;-55
2023/08/14 08:46:48;;;;;;;7.32;3.45;;;;;;;26.34;45.87;65779.91;5051835;28;20190;-55
2023/08/14 08:49:13;;;;;;;3.17;2.85;;;;;;;26.35;45.34;65781.03;5051794;28;20688;-54
2023/08/14 08:51:39;;;;;;;4.45;2.47;;;;;;;26.37;44.00;65780.69;5051758;28;20210;-53
2023/08/14 08:54:06;;;;;;;2.58;2.38;;;;;;;26.46;44.16;65793.25;5052028;28;20228;-53
2023/08/14 08:56:32;;;;;;;3.40;2.63;;;;;;;26.57;44.02;65804.91;5051763;28;20205;-54
2023/08/14 08:58:58;;;;;;;6.60;2.42;;;;;;;26.71;42.47;65817.31;5051692;28;20201;-54
2023/08/14 09:01:25;;;;;;;5.68;3.03;;;;;;;26.56;43.09;65804.34;5051664;28;20786;-53
2023/08/14 09:03:51;;;;;;;4.20;2.95;;;;;;;26.89;42.83;65837.91;5052173;28;20209;-56
2023/08/14 09:06:17;;;;;;;3.65;2.65;;;;;;;26.84;42.23;65834.38;5051471;28;20205;-55
2023/08/14 09:08:43;;;;;;;9.48;6.68;;;;;;;26.87;43.12;65835.13;5051516;28;20202;-54
2023/08/14 09:11:08;;;;;;;8.75;3.10;;;;;;;27.21;42.26;65872.94;5033526;28;20212;-54
2023/08/14 09:13:34;;;;;;;3.50;2.70;;;;;;;27.44;41.81;65901.09;5051238;28;20231;-54
2023/08/14 09:16:00;;;;;;;3.22;2.70;;;;;;;27.63;40.65;65921.69;5051239;28;20185;-54
2023/08/14 09:18:26;;;;;;;9.18;5.07;;;;;;;27.63;40.48;65922.25;5051503;28;20220;-53
2023/08/14 09:20:53;;;;;;;16.55;6.63;;;;;;;27.37;40.50;65891.28;5033243;28;20213;-54
2023/08/14 09:23:19;;;;;;;5.70;4.38;;;;;;;27.76;39.81;65936.69;5051470;28;20308;-54
2023/08/14 09:25:45;;;;;;;24.17;11.00;;;;;;;27.58;40.60;65914.09;5051067;28;20198;-54
2023/08/14 09:28:11;;;;;;;27.48;9.00;;;;;;;27.19;40.92;65870.72;5051140;28;20213;-57
2023/08/14 09:30:37;;;;;;;39.28;9.98;;;;;;;27.35;40.51;65889.06;5033379;28;20270;-54
2023/08/14 09:33:08;;;;;;;18.55;5.18;;;;;;;27.52;39.77;65909.44;5051463;28;20676;-53
2023/08/14 09:35:34;;;;;;;5.82;3.45;;;;;;;27.66;39.83;65925.00;5051002;28;20201;-53
2023/08/14 09:38:00;;;;;;;5.18;2.40;;;;;;;28.42;40.35;66006.44;5033136;28;20210;-55
2023/08/14 09:40:25;;;;;;;2.75;2.50;;;;;;;28.64;38.38;66028.34;5050926;28;20244;-53
2023/08/14 09:42:56;;;;;;;3.75;2.90;;;;;;;28.86;38.02;66058.59;5051280;28;20220;-53
2023/08/14 09:45:23;;;;;;;2.92;2.72;;;;;;;29.11;37.91;66082.72;5051315;28;20292;-54
2023/08/14 09:47:50;;;;;;;3.78;2.45;;;;;;;28.83;38.26;66052.09;5050826;28;20217;-54
2023/08/14 09:50:17;;;;;;;4.10;2.22;;;;;;;29.09;39.39;66081.03;5032938;28;20246;-55
2023/08/14 09:52:43;;;;;;;10.30;4.63;;;;;;;29.16;37.22;66091.44;5033227;28;20216;-54
2023/08/14 09:55:10;;;;;;;7.20;4.07;;;;;;;29.02;36.57;66073.25;5033033;28;20683;-54
2023/08/14 09:57:37;;;;;;;3.80;2.90;;;;;;;29.67;38.20;66145.09;5049790;28;20223;-54
2023/08/14 10:00:03;;;;;;;3.00;2.47;;;;;;;30.04;37.09;66183.72;5050849;28;20228;-53
2023/08/14 10:02:31;;;;;;;8.10;2.55;;;;;;;30.09;35.86;66191.34;5032887;28;20211;-54
2023/08/14 10:04:59;;;;;;;4.47;3.20;;;;;;;30.45;35.61;66234.09;5051341;28;20201;-54
2023/08/14 10:07:27;;;;;;;7.55;2.85;;;;;;;30.62;36.04;66253.59;5050925;28;20235;-54
2023/08/14 10:10:00;;;;;;;5.32;4.70;;;;;;;30.63;36.16;66252.13;5050874;28;20197;-52
2023/08/14 10:12:29;;;;;;;4.75;3.63;;;;;;;30.79;36.49;66268.84;5050943;28;20216;-54
2023/08/14 10:15:05;;;;;;;4.25;3.08;;;;;;;30.23;36.39;66209.56;5050472;28;20205;-54
2023/08/14 10:17:34;;;;;;;3.05;2.63;;;;;;;29.95;35.96;66178.34;5050338;28;20295;-53
2023/08/14 10:20:03;;;;;;;3.88;3.55;;;;;;;29.62;36.54;66140.09;5032487;28;20205;-54
2023/08/14 10:22:29;;;;;;;2.97;2.78;;;;;;;30.17;35.39;66200.84;5050770;28;20209;-59
2023/08/14 10:24:55;;;;;;;6.25;4.63;;;;;;;29.82;36.89;66162.38;5050826;28;20244;-55
2023/08/14 10:27:21;;;;;;;3.92;2.85;;;;;;;30.72;35.10;66258.44;5050757;28;20209;-54
2023/08/14 10:29:48;;;;;;;3.42;2.67;;;;;;;31.02;35.36;66292.47;5050313;28;20220;-54
2023/08/14 10:32:15;;;;;;;2.83;2.63;;;;;;;31.26;34.70;66318.69;5050593;28;20343;-53
2023/08/14 10:34:42;;;;;;;3.00;2.80;;;;;;;30.75;35.32;66264.94;5050352;28;20243;-54
2023/08/14 10:37:22;;;;;;;3.17;2.85;;;;;;;30.15;36.83;66198.03;5050245;28;20212;-52
2023/08/14 10:39:48;;;;;;;9.48;6.75;;;;;;;29.64;35.91;66144.91;5050093;28;20295;-55
2023/08/14 10:42:15;;;;;;;5.82;5.13;;;;;;;29.85;37.19;66165.19;5050170;28;20614;-53
2023/08/14 10:44:43;;;;;;;5.88;5.10;;;;;;;29.08;37.96;66079.38;5050050;28;20205;-53
2023/08/14 10:47:12;;;;;;;3.85;3.15;;;;;;;29.70;37.19;66149.00;5049903;28;20675;-53
2023/08/14 10:49:45;;;;;;;3.10;2.80;;;;;;;29.57;36.82;66133.97;5049972;28;20194;-54
2023/08/14 10:52:15;;;;;;;19.02;15.18;;;;;;;29.64;37.12;66141.75;5050341;28;20219;-55
2023/08/14 10:54:40;;;;;;;3.80;3.08;;;;;;;29.97;36.76;66178.53;5050563;28;20214;-53
2023/08/14 10:57:13;;;;;;;6.78;5.13;;;;;;;29.54;37.78;66128.56;5050079;28;20209;-54
2023/08/14 10:59:41;;;;;;;9.98;8.32;;;;;;;29.84;36.32;66164.06;5050069;28;20327;-54
2023/08/14 11:02:09;;;;;;;4.55;3.97;;;;;;;30.63;35.54;66252.13;5050239;28;20239;-54
2023/08/14 11:04:40;;;;;;;9.95;7.43;;;;;;;30.49;36.29;66238.56;5049814;28;20200;-53
2023/08/14 11:07:11;;;;;;;4.25;3.85;;;;;;;30.39;35.18;66227.41;5049911;28;20220;-53
2023/08/14 11:09:38;;;;;;;4.10;3.80;;;;;;;31.34;34.72;66330.22;5035566;28;20205;-53
2023/08/14 11:12:08;;;;;;;3.33;3.03;;;;;;;31.32;35.15;66327.97;5035558;28;20209;-53
2023/08/14 11:14:36;;;;;;;6.78;4.72;;;;;;;31.01;35.17;66293.41;5054019;28;20217;-54
2023/08/14 11:17:03;;;;;;;4.93;3.28;;;;;;;30.46;36.38;66233.16;5053424;28;20209;-54
2023/08/14 11:19:28;;;;;;;3.90;2.95;;;;;;;30.35;36.93;66220.91;5053253;28;20209;-60
2023/08/14 11:21:53;;;;;;;4.10;2.95;;;;;;;29.97;36.90;66177.97;5052976;28;20240;-53
2023/08/14 11:24:19;;;;;;;3.33;3.03;;;;;;;29.77;36.70;66154.22;5053271;28;20637;-54
2023/08/14 11:26:44;;;;;;;4.47;2.75;;;;;;;29.52;37.00;66128.94;5052941;28;20332;-54
2023/08/14 11:29:10;;;;;;;5.40;3.28;;;;;;;29.13;38.99;66084.94;5053041;28;20317;-54
2023/08/14 11:31:36;;;;;;;5.35;3.25;;;;;;;28.73;39.60;66041.50;5053304;28;20216;-54